Time;durP1;ratioP1;P1;durP2;ratioP2;P2;SDS_P1;SDS_P2;PMS_P1;PMS_P2;Temp;Humidity;BMP_temperature;BMP_pressure;BME280_temperature;BME280_humidity;BME280_pressure;Samples;Min_cycle;Max_cycle;Signal;HPM_P1;HPM_P2
2022/01/30 00:01:56;;;;;;;2.17;0.80;;;;;;;3.51;84.75;94924.03;5004157;28;20050;-60
2022/01/30 00:04:23;;;;;;;1.70;0.75;;;;;;;3.46;85.08;94916.16;5004102;28;20042;-60
2022/01/30 00:06:50;;;;;;;1.52;0.70;;;;;;;3.48;85.09;94916.59;5003819;28;20049;-60
2022/01/30 00:09:20;;;;;;;1.98;0.88;;;;;;;3.62;84.73;94916.16;5011629;28;20655;-60
2022/01/30 00:11:55;;;;;;;1.80;0.98;;;;;;;3.46;84.56;94915.34;5023875;28;20041;-60
2022/01/30 00:14:24;;;;;;;2.10;0.87;;;;;;;3.43;85.57;94916.03;5022558;28;21798;-60
2022/01/30 00:16:59;;;;;;;2.15;1.10;;;;;;;3.41;85.89;94905.53;5022146;28;20041;-59
2022/01/30 00:22:09;;;;;;;1.85;0.90;;;;;;;3.47;85.43;94906.84;5003649;28;20423;-61
2022/01/30 00:24:55;;;;;;;1.77;0.90;;;;;;;3.50;85.55;94905.38;5001091;28;20698;-59
2022/01/30 00:27:44;;;;;;;2.60;1.00;;;;;;;3.41;86.12;94900.09;5003206;28;20906;-60
2022/01/30 00:30:14;;;;;;;1.88;0.90;;;;;;;3.39;86.67;94910.50;5003015;28;20046;-61
2022/01/30 00:32:41;;;;;;;1.80;0.70;;;;;;;3.39;86.90;94914.00;5007812;28;20048;-61
2022/01/30 00:35:28;;;;;;;6.45;3.05;;;;;;;3.28;87.14;94912.13;5007072;28;20064;-60
2022/01/30 00:37:55;;;;;;;3.47;1.20;;;;;;;3.25;87.89;94905.47;5007836;28;20068;-58
2022/01/30 00:40:33;;;;;;;2.30;0.97;;;;;;;3.33;87.01;94918.09;5008203;28;20050;-60
2022/01/30 00:43:01;;;;;;;1.73;0.73;;;;;;;3.35;86.77;94902.25;5006646;28;20046;-60
2022/01/30 00:45:28;;;;;;;1.60;0.70;;;;;;;3.30;87.33;94901.72;5008020;28;20042;-63
2022/01/30 00:47:55;;;;;;;1.60;0.60;;;;;;;3.30;87.58;94890.88;5008089;28;20527;-57
2022/01/30 00:50:23;;;;;;;2.40;0.82;;;;;;;3.37;87.01;94891.06;5011668;28;20049;-60
2022/01/30 00:52:53;;;;;;;3.33;1.20;;;;;;;3.44;86.62;94888.56;5011552;28;20042;-61
2022/01/30 00:55:27;;;;;;;1.88;0.90;;;;;;;3.39;85.80;94889.59;5008863;28;21330;-60
2022/01/30 00:57:55;;;;;;;1.70;0.80;;;;;;;3.42;86.45;94896.28;5001833;28;20125;-59
2022/01/30 01:00:23;;;;;;;1.52;0.68;;;;;;;3.34;86.66;94894.47;5011066;28;21504;-61
2022/01/30 01:02:50;;;;;;;1.50;0.73;;;;;;;3.38;86.43;94892.63;5011273;28;20044;-60
2022/01/30 01:05:18;;;;;;;1.60;0.63;;;;;;;3.39;86.52;94877.94;5011117;28;20042;-60
2022/01/30 01:07:47;;;;;;;1.75;0.70;;;;;;;3.27;86.71;94888.84;5011137;28;20380;-60
2022/01/30 01:23:45;;;;;;;1.50;0.60;;;;;;;3.27;86.52;94883.44;5030565;28;20052;-60
2022/01/30 01:26:14;;;;;;;1.50;0.80;;;;;;;3.13;87.06;94887.31;5029192;28;20052;-60
2022/01/30 01:28:41;;;;;;;2.38;1.20;;;;;;;3.17;87.40;94887.41;5030574;28;20054;-60
2022/01/30 01:31:08;;;;;;;4.67;2.40;;;;;;;3.39;86.18;94883.38;5030178;28;20048;-60
2022/01/30 01:36:20;;;;;;;1.73;1.00;;;;;;;3.36;86.44;94874.00;5029882;28;20403;-60
2022/01/30 01:38:47;;;;;;;1.88;0.60;;;;;;;3.25;86.44;94878.34;5030236;28;20048;-60
2022/01/30 01:41:18;;;;;;;1.60;0.88;;;;;;;3.27;86.58;94875.28;5030131;28;20046;-60
2022/01/30 01:43:46;;;;;;;1.60;0.70;;;;;;;3.21;86.65;94872.03;5030376;28;20674;-60
2022/01/30 01:46:17;;;;;;;1.73;0.77;;;;;;;3.26;86.18;94863.66;5029576;28;20053;-61
2022/01/30 01:48:45;;;;;;;1.58;0.60;;;;;;;3.20;86.88;94865.03;5030183;28;20041;-61
2022/01/30 01:51:18;;;;;;;1.50;0.63;;;;;;;3.24;86.97;94875.97;5029539;28;20048;-60
2022/01/30 01:53:47;;;;;;;1.70;0.82;;;;;;;3.23;86.37;94866.25;5030265;28;20041;-61
2022/01/30 01:56:18;;;;;;;1.60;0.80;;;;;;;3.32;85.97;94866.88;5029771;28;20053;-60
2022/01/30 01:58:45;;;;;;;1.75;0.80;;;;;;;3.30;86.65;94861.03;5029745;28;20811;-60
2022/01/30 02:01:12;;;;;;;1.50;0.60;;;;;;;3.36;86.09;94859.63;5028897;28;20041;-61
2022/01/30 02:03:40;;;;;;;3.78;0.55;;;;;;;3.43;86.20;94859.84;5029859;28;20037;-60
2022/01/30 02:06:11;;;;;;;1.70;0.90;;;;;;;3.35;85.91;94858.06;5029454;28;20119;-61
2022/01/30 02:11:27;;;;;;;1.90;1.00;;;;;;;3.29;85.54;94851.31;5009802;28;20614;-60
2022/01/30 02:27:48;;;;;;;2.00;1.15;;;;;;;3.26;85.52;94831.09;5009607;28;20076;-60
2022/01/30 02:30:19;;;;;;;2.10;0.98;;;;;;;3.32;84.98;94829.72;5009614;28;20058;-61
2022/01/30 02:32:47;;;;;;;1.60;0.82;;;;;;;3.28;85.47;94828.03;5009598;28;20049;-61
2022/01/30 02:35:14;;;;;;;1.50;0.70;;;;;;;3.16;85.36;94821.53;5009423;28;20104;-61
2022/01/30 02:37:41;;;;;;;1.73;0.90;;;;;;;3.11;85.74;94818.28;5009372;28;20033;-61
2022/01/30 02:40:11;;;;;;;1.63;0.70;;;;;;;3.18;85.53;94827.41;5009168;28;20145;-60
2022/01/30 02:42:43;;;;;;;1.50;0.70;;;;;;;3.18;85.60;94835.53;5009604;28;20037;-60
2022/01/30 02:45:12;;;;;;;1.70;0.88;;;;;;;3.25;85.43;94840.38;5008885;28;20049;-59
2022/01/30 02:47:53;;;;;;;1.97;1.03;;;;;;;3.24;85.16;94838.81;5009230;28;20049;-59
2022/01/30 02:50:32;;;;;;;1.77;0.80;;;;;;;3.32;84.63;94834.34;5008944;28;20068;-59
2022/01/30 02:53:03;;;;;;;1.90;0.80;;;;;;;3.29;84.66;94843.19;5008833;28;20057;-59
2022/01/30 02:55:30;;;;;;;1.60;0.90;;;;;;;3.27;85.09;94834.59;5009842;28;20048;-60
2022/01/30 02:57:56;;;;;;;1.65;0.90;;;;;;;3.37;84.26;94839.53;5008746;28;20052;-60
2022/01/30 03:00:23;;;;;;;1.60;0.73;;;;;;;3.44;83.88;94836.19;5008123;28;20050;-60
2022/01/30 03:02:50;;;;;;;1.90;0.90;;;;;;;3.50;84.24;94832.91;5024043;28;20042;-60
2022/01/30 03:05:17;;;;;;;3.63;1.30;;;;;;;3.50;83.67;94823.97;5023997;28;20042;-60
2022/01/30 03:07:44;;;;;;;2.22;0.90;;;;;;;3.37;83.79;94832.16;5007730;28;20037;-61
2022/01/30 03:10:11;;;;;;;4.80;1.20;;;;;;;3.49;83.66;94836.75;5023859;28;20651;-60
2022/01/30 03:12:38;;;;;;;5.00;1.40;;;;;;;3.51;83.75;94839.91;5027704;28;20041;-60
2022/01/30 03:15:05;;;;;;;2.65;1.20;;;;;;;3.43;83.86;94813.72;5028131;28;20041;-60
2022/01/30 03:17:32;;;;;;;2.97;1.10;;;;;;;3.45;83.58;94811.44;5028774;28;20049;-59
2022/01/30 03:19:59;;;;;;;2.75;1.15;;;;;;;3.37;84.17;94812.41;5027964;28;20052;-59
2022/01/30 03:22:27;;;;;;;1.85;0.77;;;;;;;3.41;83.78;94816.00;5028739;28;20037;-60
2022/01/30 03:24:53;;;;;;;1.87;0.73;;;;;;;3.36;83.94;94817.03;5017834;28;20045;-61
2022/01/30 03:27:20;;;;;;;2.20;1.20;;;;;;;3.45;83.57;94814.16;5008539;28;20475;-61
2022/01/30 03:29:52;;;;;;;2.25;1.35;;;;;;;3.43;83.55;94819.13;5008236;28;20414;-61
2022/01/30 03:32:18;;;;;;;3.10;1.33;;;;;;;3.38;83.61;94825.63;5007342;28;20041;-61
2022/01/30 03:34:45;;;;;;;3.10;1.13;;;;;;;3.36;83.84;94819.75;5008546;28;20045;-61
2022/01/30 03:37:12;;;;;;;2.17;0.80;;;;;;;3.35;84.13;94822.81;5008056;28;20053;-61
2022/01/30 03:39:39;;;;;;;1.67;0.70;;;;;;;3.36;84.24;94808.09;5008446;28;20640;-62
2022/01/30 03:42:06;;;;;;;1.60;0.77;;;;;;;3.34;84.05;94804.94;5008176;28;20046;-60
2022/01/30 03:44:33;;;;;;;1.73;1.00;;;;;;;3.36;83.61;94819.75;5008631;28;20049;-60
2022/01/30 03:46:59;;;;;;;3.42;1.60;;;;;;;3.42;83.27;94822.19;5008039;28;20065;-61
2022/01/30 03:49:26;;;;;;;1.80;0.97;;;;;;;3.35;83.03;94825.50;5008911;28;20069;-61
2022/01/30 03:51:53;;;;;;;1.88;0.70;;;;;;;3.31;83.95;94824.63;5008382;28;20056;-61
2022/01/30 03:54:20;;;;;;;2.28;1.23;;;;;;;3.32;84.22;94828.91;5008031;28;20064;-60
2022/01/30 03:56:47;;;;;;;3.67;1.83;;;;;;;3.37;83.46;94832.16;5008177;28;20153;-61
2022/01/30 03:59:14;;;;;;;2.30;1.33;;;;;;;3.42;83.21;94833.03;5007724;28;20096;-60
2022/01/30 04:01:40;;;;;;;1.87;0.90;;;;;;;3.42;83.13;94824.91;5008373;28;20056;-61
2022/01/30 04:04:08;;;;;;;1.80;0.80;;;;;;;3.35;83.79;94817.38;5007996;28;20065;-61
2022/01/30 04:06:35;;;;;;;1.80;0.70;;;;;;;3.39;83.58;94826.41;5007272;28;20045;-61
2022/01/30 04:09:03;;;;;;;1.70;0.70;;;;;;;3.47;83.59;94819.25;5013568;28;20478;-61
2022/01/30 04:11:30;;;;;;;1.52;0.68;;;;;;;3.49;83.32;94825.88;5026849;28;20046;-60
2022/01/30 04:13:57;;;;;;;1.80;0.60;;;;;;;3.58;82.44;94826.53;5027779;28;20091;-60
2022/01/30 04:16:24;;;;;;;1.60;0.70;;;;;;;3.49;83.32;94833.25;5026583;28;20068;-61
2022/01/30 04:18:51;;;;;;;1.67;0.80;;;;;;;3.53;82.86;94829.47;5027801;28;20072;-61
2022/01/30 04:21:18;;;;;;;2.08;1.00;;;;;;;3.48;83.54;94828.94;5027986;28;20042;-61
2022/01/30 04:23:45;;;;;;;2.10;1.00;;;;;;;3.66;82.89;94838.34;5028160;28;20037;-58
2022/01/30 04:26:11;;;;;;;2.00;0.90;;;;;;;3.76;81.99;94843.28;5012027;28;20053;-57
2022/01/30 04:28:39;;;;;;;2.25;1.15;;;;;;;3.72;81.99;94828.00;5012735;28;20061;-59
2022/01/30 04:31:05;;;;;;;2.70;1.48;;;;;;;3.61;82.56;94833.19;5011644;28;20094;-58
2022/01/30 04:33:33;;;;;;;3.08;1.80;;;;;;;3.59;83.19;94830.81;5010819;28;20046;-57
2022/01/30 04:36:07;;;;;;;7.70;5.45;;;;;;;3.63;82.15;94830.13;5011631;28;20052;-58
2022/01/30 04:38:54;;;;;;;1.70;0.70;;;;;;;3.60;82.66;94835.13;5012115;28;20046;-58
2022/01/30 04:52:49;;;;;;;1.50;0.40;;;;;;;3.57;82.89;94846.66;5010788;28;20631;-60
2022/01/30 05:03:38;;;;;;;1.80;0.88;;;;;;;3.57;83.74;94854.00;5006177;28;20351;-59
2022/01/30 05:06:09;;;;;;;5.40;2.40;;;;;;;3.61;83.91;94852.19;5010813;28;20048;-59
2022/01/30 05:08:36;;;;;;;2.05;1.17;;;;;;;3.55;83.98;94848.13;5013803;28;20053;-60
2022/01/30 05:11:07;;;;;;;2.30;1.27;;;;;;;3.66;83.51;94840.28;5029257;28;20049;-59
2022/01/30 05:13:37;;;;;;;2.10;1.10;;;;;;;3.64;83.90;94845.25;5031251;28;20120;-58
2022/01/30 05:16:04;;;;;;;2.10;1.08;;;;;;;3.57;84.39;94852.06;5029956;28;20045;-59
2022/01/30 05:18:32;;;;;;;1.80;1.00;;;;;;;3.52;84.63;94846.91;5031035;28;20049;-60
2022/01/30 05:20:59;;;;;;;2.65;0.90;;;;;;;3.54;84.32;94857.41;5030258;28;20521;-59
2022/01/30 05:23:26;;;;;;;1.70;0.85;;;;;;;3.60;84.57;94854.13;5031163;28;20041;-59
2022/01/30 05:25:53;;;;;;;1.65;0.80;;;;;;;3.49;84.64;94850.31;5005513;28;20042;-59
2022/01/30 05:28:22;;;;;;;1.73;0.85;;;;;;;3.45;85.33;94854.06;5010691;28;20064;-59
2022/01/30 05:30:49;;;;;;;2.23;1.00;;;;;;;3.42;85.76;94858.28;5011130;28;20320;-60
2022/01/30 05:33:17;;;;;;;2.58;1.10;;;;;;;3.46;84.84;94856.44;5009600;28;20107;-60
2022/01/30 05:35:44;;;;;;;2.42;1.55;;;;;;;3.60;84.44;94859.53;5009951;28;20042;-60
2022/01/30 05:38:11;;;;;;;2.70;1.20;;;;;;;3.65;84.68;94858.50;5009260;28;20088;-59
2022/01/30 05:40:38;;;;;;;3.40;1.38;;;;;;;3.50;84.45;94865.47;5011005;28;20053;-60
2022/01/30 05:43:06;;;;;;;2.00;1.00;;;;;;;3.53;84.09;94864.75;5008930;28;20907;-60
2022/01/30 05:45:40;;;;;;;1.90;1.00;;;;;;;3.50;84.62;94876.34;4993204;28;20050;-60
2022/01/30 05:48:14;;;;;;;2.00;1.13;;;;;;;3.54;84.81;94873.69;5010128;28;20519;-59
2022/01/30 05:50:44;;;;;;;2.80;1.10;;;;;;;3.34;85.71;94870.03;5010914;28;20042;-60
2022/01/30 05:53:11;;;;;;;2.30;1.08;;;;;;;3.44;85.05;94871.47;5010190;28;20382;-61
2022/01/30 05:55:38;;;;;;;2.50;1.20;;;;;;;3.47;85.68;94874.28;5010628;28;20075;-59
2022/01/30 05:58:05;;;;;;;1.92;1.00;;;;;;;3.53;85.02;94882.97;5008198;28;20048;-60
2022/01/30 06:00:32;;;;;;;2.60;1.00;;;;;;;3.57;84.77;94886.59;5010290;28;20038;-59
2022/01/30 06:02:58;;;;;;;2.00;0.95;;;;;;;3.39;84.54;94881.44;5009741;28;20057;-59
2022/01/30 06:05:26;;;;;;;1.80;0.90;;;;;;;3.31;84.98;94890.53;5010200;28;20041;-60
2022/01/30 06:07:55;;;;;;;2.07;0.90;;;;;;;3.37;85.34;94891.06;5010090;28;20064;-59
2022/01/30 06:10:27;;;;;;;1.70;0.80;;;;;;;3.32;85.47;94894.03;5026329;28;20761;-59
2022/01/30 06:12:54;;;;;;;1.60;0.80;;;;;;;3.40;84.90;94893.09;5028397;28;20052;-59
2022/01/30 06:15:20;;;;;;;2.42;0.95;;;;;;;3.29;84.94;94892.78;5028743;28;21583;-60
2022/01/30 06:17:47;;;;;;;4.30;2.33;;;;;;;3.32;84.80;94886.69;5029822;28;20107;-63
2022/01/30 06:20:14;;;;;;;2.30;1.00;;;;;;;3.28;84.81;94895.84;5028015;28;20055;-60
2022/01/30 06:22:42;;;;;;;2.00;0.95;;;;;;;3.40;84.90;94903.94;5029724;28;20055;-60
2022/01/30 06:25:14;;;;;;;3.08;1.48;;;;;;;3.53;84.24;94901.97;5029030;28;20080;-59
2022/01/30 06:27:41;;;;;;;3.65;1.52;;;;;;;3.44;84.41;94902.13;5028264;28;20118;-60
2022/01/30 06:30:09;;;;;;;2.80;1.60;;;;;;;3.57;84.34;94908.28;5028822;28;20815;-60
2022/01/30 06:32:35;;;;;;;3.40;1.90;;;;;;;3.44;84.53;94913.00;5028209;28;20093;-59
2022/01/30 06:35:04;;;;;;;2.40;1.27;;;;;;;3.32;84.96;94918.44;5027415;28;20047;-59
2022/01/30 06:37:32;;;;;;;2.58;1.15;;;;;;;3.40;85.09;94917.50;5029506;28;20045;-60
2022/01/30 06:39:59;;;;;;;2.60;1.45;;;;;;;3.10;85.96;94923.28;5028514;28;20053;-60
2022/01/30 06:42:29;;;;;;;2.50;1.50;;;;;;;3.14;86.03;94920.63;5029216;28;20047;-60
2022/01/30 06:44:55;;;;;;;3.63;1.03;;;;;;;3.26;85.94;94922.53;5027120;28;20057;-57
2022/01/30 06:47:22;;;;;;;2.20;1.20;;;;;;;3.27;85.83;94924.13;5028999;28;20046;-60
2022/01/30 06:49:49;;;;;;;2.55;1.20;;;;;;;3.20;85.66;94925.50;5028704;28;20048;-63
2022/01/30 06:52:16;;;;;;;3.28;2.22;;;;;;;3.18;85.44;94933.19;5028591;28;20049;-60
2022/01/30 06:54:43;;;;;;;3.25;1.80;;;;;;;3.18;86.11;94940.53;5028906;28;20048;-59
2022/01/30 06:57:09;;;;;;;3.40;1.30;;;;;;;3.23;86.19;94945.72;5028092;28;20046;-60
2022/01/30 06:59:37;;;;;;;4.03;1.67;;;;;;;3.29;85.92;94959.84;5028747;28;20519;-60
2022/01/30 07:02:05;;;;;;;29.50;15.40;;;;;;;3.31;86.25;94958.34;5028176;28;20037;-60
2022/01/30 07:04:33;;;;;;;10.95;4.95;;;;;;;3.23;86.01;94961.22;5028583;28;20449;-60
2022/01/30 07:07:03;;;;;;;5.72;2.88;;;;;;;3.19;86.13;94956.44;5028067;28;20071;-60
2022/01/30 07:09:31;;;;;;;3.93;1.80;;;;;;;3.25;86.16;94956.22;5017997;28;20399;-60
2022/01/30 07:11:58;;;;;;;4.93;2.20;;;;;;;3.30;86.01;94951.38;5008222;28;20049;-60
2022/01/30 07:14:25;;;;;;;5.05;2.53;;;;;;;3.19;85.56;94961.09;5007715;28;20034;-60
2022/01/30 07:16:52;;;;;;;5.45;3.15;;;;;;;3.20;85.56;94958.06;5008316;28;20048;-60
2022/01/30 07:19:19;;;;;;;3.83;2.00;;;;;;;3.10;86.23;94966.66;5006892;28;20099;-60
2022/01/30 07:21:46;;;;;;;6.73;2.57;;;;;;;3.07;86.87;94967.34;5008893;28;20060;-60
2022/01/30 07:24:15;;;;;;;4.45;1.88;;;;;;;3.01;86.85;94976.84;5007774;28;20052;-60
2022/01/30 07:26:42;;;;;;;3.15;1.60;;;;;;;3.00;86.52;94986.13;5008941;28;20045;-60
2022/01/30 07:29:09;;;;;;;4.25;1.80;;;;;;;2.97;86.80;94982.13;5007829;28;20045;-59
2022/01/30 07:31:36;;;;;;;3.42;1.77;;;;;;;2.96;87.19;94979.78;5008769;28;20060;-59
2022/01/30 07:34:03;;;;;;;5.47;1.70;;;;;;;3.04;86.37;94978.88;5006526;28;20087;-60
2022/01/30 07:36:33;;;;;;;4.35;2.22;;;;;;;3.27;85.37;94979.16;5008971;28;20057;-59
2022/01/30 07:39:00;;;;;;;4.15;1.60;;;;;;;3.29;85.49;94981.53;5008057;28;20050;-60
2022/01/30 07:41:27;;;;;;;4.93;2.60;;;;;;;3.27;85.55;94979.16;5008600;28;20046;-59
2022/01/30 07:43:54;;;;;;;9.48;4.32;;;;;;;3.36;84.78;94981.72;5008554;28;20050;-60
2022/01/30 07:46:21;;;;;;;5.83;2.80;;;;;;;3.29;86.01;94986.97;5022778;28;20469;-59
2022/01/30 07:48:48;;;;;;;5.00;2.78;;;;;;;3.44;85.51;94971.88;5008716;28;20049;-61
2022/01/30 07:51:14;;;;;;;3.50;2.25;;;;;;;3.23;85.83;94972.06;5006753;28;20050;-59
2022/01/30 07:53:41;;;;;;;2.97;1.42;;;;;;;3.47;85.05;94982.84;5008806;28;20491;-60
2022/01/30 07:56:08;;;;;;;2.88;1.60;;;;;;;3.43;84.88;94981.94;5005217;28;20038;-61
2022/01/30 07:58:35;;;;;;;93.97;19.87;;;;;;;3.54;85.35;94987.69;5010750;28;20042;-60
2022/01/30 08:01:02;;;;;;;14.75;4.20;;;;;;;3.42;84.61;94979.56;5011820;28;20085;-59
2022/01/30 08:03:28;;;;;;;13.52;7.30;;;;;;;3.16;86.44;94988.91;5012820;28;20042;-59
2022/01/30 08:05:56;;;;;;;4.97;2.60;;;;;;;3.25;86.16;94984.13;5011462;28;20042;-58
2022/01/30 08:08:23;;;;;;;11.55;6.72;;;;;;;3.33;85.34;94987.84;5011813;28;20445;-59
2022/01/30 08:10:50;;;;;;;5.73;2.60;;;;;;;3.37;85.71;94989.53;5032246;28;20114;-60
2022/01/30 08:13:17;;;;;;;5.93;2.80;;;;;;;3.42;85.09;94999.38;5031559;28;20056;-60
2022/01/30 08:15:45;;;;;;;5.85;2.30;;;;;;;3.20;85.87;94998.75;5031934;28;20095;-60
2022/01/30 08:18:12;;;;;;;6.47;2.67;;;;;;;3.26;86.10;95003.91;5031488;28;20038;-60
2022/01/30 08:20:39;;;;;;;4.75;2.08;;;;;;;3.47;84.61;95011.91;5031566;28;20048;-61
2022/01/30 08:23:14;;;;;;;6.93;2.60;;;;;;;3.60;83.86;95006.13;5018227;28;20398;-60
2022/01/30 08:25:42;;;;;;;6.25;2.30;;;;;;;3.90;83.42;95016.63;5012120;28;20065;-60
2022/01/30 08:28:09;;;;;;;8.18;3.50;;;;;;;5.65;77.25;95015.81;5011453;28;20103;-60
2022/01/30 08:30:36;;;;;;;4.32;2.10;;;;;;;5.75;75.40;95012.53;5011882;28;20062;-60
2022/01/30 08:33:03;;;;;;;4.10;1.83;;;;;;;5.17;76.77;95019.47;5011369;28;20046;-59
2022/01/30 08:35:31;;;;;;;5.43;2.60;;;;;;;4.88;77.13;95014.50;5012193;28;20367;-60
2022/01/30 08:37:59;;;;;;;7.47;3.00;;;;;;;4.87;77.85;95021.88;5010943;28;20048;-61
2022/01/30 08:40:26;;;;;;;8.10;2.95;;;;;;;4.84;78.01;95028.00;5011931;28;20099;-60
2022/01/30 08:42:53;;;;;;;7.03;2.50;;;;;;;5.37;76.00;95016.78;5011906;28;20402;-60
2022/01/30 08:45:20;;;;;;;4.63;2.30;;;;;;;5.55;74.22;95019.88;5002864;28;20038;-60
2022/01/30 08:47:50;;;;;;;7.83;3.63;;;;;;;4.80;77.72;95021.69;5004641;28;20042;-62
2022/01/30 08:50:18;;;;;;;7.07;2.58;;;;;;;4.89;77.32;95030.47;5001004;28;20041;-61
2022/01/30 08:52:45;;;;;;;7.53;2.47;;;;;;;4.96;77.83;95019.72;5006234;28;20642;-61
2022/01/30 08:55:13;;;;;;;4.60;2.20;;;;;;;5.38;77.05;95021.09;5006733;28;20052;-61
2022/01/30 08:57:40;;;;;;;5.85;2.75;;;;;;;5.33;76.06;95024.06;5006990;28;20057;-61
2022/01/30 09:00:10;;;;;;;6.43;3.17;;;;;;;5.15;76.30;95032.63;5006070;28;20571;-61
2022/01/30 09:02:38;;;;;;;7.00;3.08;;;;;;;5.25;77.01;95025.06;4989916;28;20042;-61
2022/01/30 09:05:06;;;;;;;4.72;2.20;;;;;;;5.14;76.98;95022.09;5006564;28;20058;-60
2022/01/30 09:07:33;;;;;;;4.78;2.45;;;;;;;5.12;77.54;95019.72;5006140;28;20073;-61
2022/01/30 09:10:00;;;;;;;6.47;3.00;;;;;;;5.22;77.33;95017.63;5006086;28;20064;-61
2022/01/30 09:12:27;;;;;;;7.43;3.70;;;;;;;5.44;76.22;95019.66;5006689;28;20052;-61
2022/01/30 09:14:54;;;;;;;7.57;3.90;;;;;;;5.28;75.90;95021.63;5005130;28;21662;-60
2022/01/30 09:17:22;;;;;;;10.65;5.15;;;;;;;5.63;74.73;95021.63;5005519;28;20592;-62
2022/01/30 09:19:49;;;;;;;6.22;3.00;;;;;;;5.73;74.20;95017.53;5006662;28;20058;-60
2022/01/30 09:22:18;;;;;;;8.50;2.90;;;;;;;5.62;73.38;95019.28;5006155;28;20452;-59
2022/01/30 09:24:45;;;;;;;5.80;2.43;;;;;;;5.40;74.50;95018.78;5007017;28;20089;-61
2022/01/30 09:27:12;;;;;;;4.80;2.53;;;;;;;5.94;73.22;95009.81;5005510;28;20060;-62
2022/01/30 09:29:40;;;;;;;4.57;1.92;;;;;;;6.44;70.97;95007.28;5006211;28;20060;-60
2022/01/30 09:32:07;;;;;;;6.97;2.20;;;;;;;6.60;70.03;94999.78;5004593;28;20154;-60
2022/01/30 09:34:35;;;;;;;6.18;2.53;;;;;;;6.94;69.42;94999.16;5006718;28;20049;-61
2022/01/30 09:37:05;;;;;;;5.13;2.40;;;;;;;7.15;67.50;94993.25;5005137;28;20096;-61
2022/01/30 09:39:32;;;;;;;4.70;2.30;;;;;;;6.69;69.12;94987.84;5006557;28;20096;-61
2022/01/30 09:41:59;;;;;;;5.53;2.40;;;;;;;6.39;70.63;94988.50;5006028;28;20123;-63
2022/01/30 09:44:26;;;;;;;6.65;2.60;;;;;;;5.15;72.95;94986.38;5005980;28;20060;-61
2022/01/30 09:46:53;;;;;;;5.75;2.30;;;;;;;5.39;71.54;94990.78;5006070;28;20045;-62
2022/01/30 09:49:28;;;;;;;7.07;2.90;;;;;;;5.05;72.97;94988.84;5005762;28;20762;-62
2022/01/30 09:51:56;;;;;;;5.57;2.35;;;;;;;5.22;72.44;94995.84;5006143;28;20053;-60
2022/01/30 09:54:22;;;;;;;6.88;2.42;;;;;;;4.74;74.27;94991.22;5004931;28;20488;-61
2022/01/30 09:56:49;;;;;;;5.97;2.70;;;;;;;5.06;73.26;94993.94;5004522;28;20072;-61
2022/01/30 09:59:16;;;;;;;7.68;2.90;;;;;;;4.93;74.01;94989.72;5003687;28;20353;-61
2022/01/30 10:01:43;;;;;;;7.57;3.20;;;;;;;4.53;74.99;95001.59;5001784;28;20533;-61
2022/01/30 10:04:10;;;;;;;5.63;2.67;;;;;;;4.86;74.35;95003.94;5004857;28;20054;-62
2022/01/30 10:06:58;;;;;;;6.63;2.70;;;;;;;5.23;72.25;95003.63;5005712;28;20338;-61
2022/01/30 10:09:32;;;;;;;6.10;2.58;;;;;;;4.82;72.88;95011.25;5011731;28;21882;-61
2022/01/30 10:12:19;;;;;;;7.60;2.97;;;;;;;5.78;70.76;95012.63;5005468;28;20049;-59
2022/01/30 10:14:50;;;;;;;6.87;3.10;;;;;;;5.90;69.02;95008.97;5003990;28;20050;-59
2022/01/30 10:17:38;;;;;;;7.45;2.95;;;;;;;6.09;68.56;95008.19;5004849;28;20138;-60
2022/01/30 10:20:26;;;;;;;8.27;3.33;;;;;;;5.83;67.09;95016.97;5004290;28;20042;-60
2022/01/30 10:23:03;;;;;;;10.93;3.28;;;;;;;5.66;68.62;95011.97;5005440;28;20145;-60
2022/01/30 10:25:36;;;;;;;8.77;3.58;;;;;;;6.24;67.62;95016.63;5004782;28;20694;-59
2022/01/30 10:28:16;;;;;;;5.40;2.70;;;;;;;6.45;66.14;95013.53;5004499;28;20042;-62
2022/01/30 10:30:54;;;;;;;6.95;2.70;;;;;;;6.39;64.62;95007.56;4996840;28;20056;-61
2022/01/30 10:33:36;;;;;;;8.50;2.80;;;;;;;6.10;65.80;95012.50;5004432;28;20097;-59
2022/01/30 10:36:04;;;;;;;7.13;3.50;;;;;;;6.12;65.94;95006.69;5000764;28;20050;-60
2022/01/30 10:38:36;;;;;;;8.38;3.30;;;;;;;6.03;66.10;95003.38;5003627;28;20040;-59
2022/01/30 10:41:20;;;;;;;10.40;2.93;;;;;;;6.01;66.28;95014.66;5004845;28;20622;-62
2022/01/30 10:44:19;;;;;;;7.25;2.28;;;;;;;5.60;66.84;95001.34;5005324;28;20063;-60
2022/01/30 10:46:48;;;;;;;6.72;2.58;;;;;;;5.52;66.91;95001.56;4972155;28;20224;-60
2022/01/30 10:49:21;;;;;;;8.43;3.20;;;;;;;5.98;65.66;94996.31;4983299;28;20070;-61
2022/01/30 10:51:55;;;;;;;8.80;2.78;;;;;;;6.16;64.81;94996.66;4985465;28;20054;-60
2022/01/30 10:54:26;;;;;;;9.17;3.67;;;;;;;6.24;64.17;94995.63;4985080;28;20054;-60
2022/01/30 10:57:11;;;;;;;8.65;3.05;;;;;;;5.78;64.99;94984.59;4999967;28;20454;-59
2022/01/30 10:59:43;;;;;;;5.68;2.65;;;;;;;6.47;63.16;94987.47;4982744;28;21994;-61
2022/01/30 11:02:17;;;;;;;6.82;2.50;;;;;;;6.61;62.83;94984.19;4984750;28;20058;-61
2022/01/30 11:04:48;;;;;;;8.48;3.80;;;;;;;6.03;64.31;94978.88;4985667;28;20050;-61
2022/01/30 11:07:19;;;;;;;6.83;2.30;;;;;;;6.82;61.11;94974.78;4998524;28;20050;-60
2022/01/30 11:10:01;;;;;;;9.50;2.75;;;;;;;6.94;60.30;94982.78;5016617;28;20045;-60
2022/01/30 11:13:24;;;;;;;6.90;2.50;;;;;;;7.84;58.11;94970.38;5001848;28;20411;-63
2022/01/30 11:15:34;;;;;;;9.65;3.88;;;;;;;8.01;56.29;94964.34;4994845;28;20060;-61
2022/01/30 11:18:05;;;;;;;6.97;2.90;;;;;;;6.84;59.95;94965.09;5004006;28;20150;-62
2022/01/30 11:20:33;;;;;;;8.27;2.80;;;;;;;7.52;57.80;94968.03;5004227;28;20064;-60
2022/01/30 11:23:05;;;;;;;8.02;2.85;;;;;;;7.18;58.08;94957.81;5004449;28;20509;-64
2022/01/30 11:25:35;;;;;;;6.72;2.20;;;;;;;10.25;51.42;94959.31;5004573;28;20060;-62
2022/01/30 11:28:04;;;;;;;6.53;2.40;;;;;;;8.39;53.83;94959.66;5003735;28;20054;-61
2022/01/30 11:30:50;;;;;;;6.82;2.65;;;;;;;10.09;50.20;94974.13;5004713;28;20060;-62
2022/01/30 11:33:17;;;;;;;7.90;2.60;;;;;;;10.16;49.19;94959.66;4994591;28;20046;-61
2022/01/30 11:35:44;;;;;;;5.90;2.20;;;;;;;8.49;52.07;94963.69;4984513;28;20060;-61
2022/01/30 11:38:11;;;;;;;6.15;2.75;;;;;;;8.43;52.86;94960.53;4984212;28;20066;-62
2022/01/30 11:40:38;;;;;;;8.13;2.97;;;;;;;7.39;55.85;94954.59;4984805;28;20751;-60
2022/01/30 11:43:08;;;;;;;7.47;3.25;;;;;;;7.24;56.87;94946.56;4983838;28;20060;-64
2022/01/30 11:45:35;;;;;;;8.87;3.10;;;;;;;6.55;57.73;94945.53;4992737;28;20457;-62
2022/01/30 11:48:14;;;;;;;7.82;2.80;;;;;;;7.06;57.27;94944.38;5003912;28;20053;-61
2022/01/30 11:50:41;;;;;;;8.38;2.75;;;;;;;7.22;56.83;94946.94;5003915;28;20056;-61
2022/01/30 11:53:11;;;;;;;7.43;2.40;;;;;;;7.12;56.29;94937.47;5003124;28;20087;-61
2022/01/30 11:55:56;;;;;;;6.93;2.58;;;;;;;6.68;57.88;94939.88;5003949;28;20049;-61
2022/01/30 11:58:32;;;;;;;6.30;2.40;;;;;;;6.55;57.98;94936.56;5002500;28;20501;-61
2022/01/30 12:01:01;;;;;;;6.18;2.45;;;;;;;6.53;58.14;94938.88;5003807;28;20050;-63
2022/01/30 12:03:35;;;;;;;7.22;2.60;;;;;;;7.12;58.28;94929.28;5002953;28;20052;-61
2022/01/30 12:06:20;;;;;;;9.10;2.70;;;;;;;7.53;55.99;94937.63;5003880;28;20050;-59
2022/01/30 12:09:02;;;;;;;7.10;3.20;;;;;;;6.25;59.04;94937.22;5006898;28;20046;-62
2022/01/30 12:11:36;;;;;;;8.17;2.83;;;;;;;7.08;57.06;94939.31;5023087;28;22094;-60
2022/01/30 12:14:05;;;;;;;12.73;4.68;;;;;;;6.76;57.22;94936.09;5022022;28;20059;-60
2022/01/30 12:16:46;;;;;;;9.07;3.78;;;;;;;6.76;58.01;94945.09;4991678;28;20585;-60
2022/01/30 12:19:18;;;;;;;9.15;2.60;;;;;;;6.16;58.62;94932.03;4983995;28;20065;-60
2022/01/30 12:21:44;;;;;;;9.35;3.15;;;;;;;6.03;60.61;94936.06;4984151;28;20046;-60
2022/01/30 12:24:31;;;;;;;8.93;3.17;;;;;;;6.51;58.10;94930.28;4983712;28;20684;-59
2022/01/30 12:27:02;;;;;;;7.50;2.90;;;;;;;7.34;56.52;94933.06;4983909;28;20046;-62
2022/01/30 12:29:37;;;;;;;5.93;2.22;;;;;;;7.00;55.53;94930.28;4982925;28;20049;-60
2022/01/30 12:32:22;;;;;;;8.27;2.50;;;;;;;7.35;56.87;94931.13;4984066;28;20062;-60
2022/01/30 12:34:54;;;;;;;8.50;2.80;;;;;;;7.24;54.37;94924.72;4984310;28;20042;-61
2022/01/30 12:37:29;;;;;;;7.27;2.50;;;;;;;8.12;53.67;94920.72;4983417;28;21806;-59
2022/01/30 12:39:59;;;;;;;6.60;2.30;;;;;;;8.28;52.76;94921.25;4984169;28;20050;-60
2022/01/30 12:42:30;;;;;;;6.38;2.20;;;;;;;7.99;52.31;94925.66;4983775;28;20046;-59
2022/01/30 12:45:01;;;;;;;6.22;2.60;;;;;;;7.92;54.09;94926.34;4985794;28;20050;-59
2022/01/30 12:47:28;;;;;;;9.13;4.00;;;;;;;7.68;53.87;94926.84;4987662;28;20042;-61
2022/01/30 12:49:58;;;;;;;8.87;3.47;;;;;;;7.43;54.51;94924.59;5006303;28;20041;-60